createdAt,value
2018-10-11T00:00:38.454Z,21.80
2018-10-11T00:03:04.460Z,21.78
2018-10-11T00:05:30.444Z,21.78
2018-10-11T00:07:56.435Z,21.77
2018-10-11T00:10:22.517Z,21.76
2018-10-11T00:12:48.470Z,21.78
2018-10-11T00:15:14.451Z,21.75
2018-10-11T00:17:40.428Z,21.76
2018-10-11T00:20:06.510Z,21.76
2018-10-11T00:22:32.414Z,21.75
2018-10-11T00:24:58.367Z,21.74
2018-10-11T00:27:24.374Z,21.73
2018-10-11T00:29:50.425Z,21.73
2018-10-11T00:32:16.406Z,21.73
2018-10-11T00:34:42.396Z,21.73
2018-10-11T00:37:08.375Z,21.72
2018-10-11T00:39:34.354Z,21.74
2018-10-11T00:42:01.324Z,21.76
2018-10-11T00:44:27.332Z,21.78
2018-10-11T00:46:53.335Z,21.77
2018-10-11T00:49:19.300Z,21.76
2018-10-11T00:51:45.242Z,21.76
2018-10-11T00:54:11.210Z,21.76
2018-10-11T00:56:37.206Z,21.75
2018-10-11T00:59:03.186Z,21.76
2018-10-11T01:01:29.195Z,21.73
2018-10-11T01:03:58.644Z,21.73
2018-10-11T01:06:24.631Z,21.74
2018-10-11T01:08:50.588Z,21.74
2018-10-11T01:11:16.594Z,21.73
2018-10-11T01:13:42.562Z,21.73
2018-10-11T01:16:08.569Z,21.73
2018-10-11T01:18:34.542Z,21.73
2018-10-11T01:21:00.515Z,21.71
2018-10-11T01:23:26.482Z,21.71
2018-10-11T01:25:52.494Z,21.73
2018-10-11T01:28:18.515Z,21.73
2018-10-11T01:30:44.524Z,21.75
2018-10-11T01:33:10.477Z,21.74
2018-10-11T01:35:36.464Z,21.74
2018-10-11T01:38:02.444Z,21.73
2018-10-11T01:40:28.424Z,21.73
2018-10-11T01:42:54.460Z,21.73
2018-10-11T01:45:20.467Z,21.72
2018-10-11T01:47:48.438Z,21.73
2018-10-11T01:50:14.420Z,21.73
2018-10-11T01:52:40.367Z,21.74
2018-10-11T01:55:06.351Z,21.71
2018-10-11T01:57:32.323Z,21.71
2018-10-11T01:59:58.335Z,21.72
2018-10-11T02:02:24.301Z,21.71
2018-10-11T02:04:50.284Z,21.71
2018-10-11T02:07:16.311Z,21.71
2018-10-11T02:09:42.293Z,21.71
2018-10-11T02:12:08.275Z,21.72
2018-10-11T02:14:34.255Z,21.72
2018-10-11T02:17:00.241Z,21.74
2018-10-11T02:19:26.207Z,21.73
2018-10-11T02:21:52.218Z,21.72
2018-10-11T02:24:18.200Z,21.70
2018-10-11T02:26:44.156Z,21.71
2018-10-11T02:29:10.149Z,21.72
2018-10-11T02:31:36.112Z,21.72
2018-10-11T02:34:02.099Z,21.70
2018-10-11T02:36:28.090Z,21.70
2018-10-11T02:38:54.067Z,21.70
2018-10-11T02:41:20.033Z,21.71
2018-10-11T02:43:46.112Z,21.70
2018-10-11T02:46:12.079Z,21.71
2018-10-11T02:48:38.108Z,21.70
2018-10-11T02:51:04.083Z,21.69
2018-10-11T02:53:30.035Z,21.70
2018-10-11T02:55:56.009Z,21.70
2018-10-11T02:58:21.978Z,21.72
2018-10-11T03:00:47.939Z,21.73
2018-10-11T03:03:13.918Z,21.73
2018-10-11T03:05:39.911Z,21.72
2018-10-11T03:08:05.864Z,21.71
2018-10-11T03:10:31.821Z,21.70
2018-10-11T03:12:57.805Z,21.70
2018-10-11T03:15:23.807Z,21.72
2018-10-11T03:17:50.936Z,21.72
2018-10-11T03:20:16.913Z,21.72
2018-10-11T03:22:42.895Z,21.72
2018-10-11T03:25:08.860Z,21.71
2018-10-11T03:27:34.837Z,21.72
2018-10-11T03:30:00.829Z,21.71
2018-10-11T03:32:26.819Z,21.72
2018-10-11T03:34:52.788Z,21.72
2018-10-11T03:37:18.755Z,21.70
2018-10-11T03:39:44.794Z,21.70
2018-10-11T03:42:10.773Z,21.70
2018-10-11T03:44:36.748Z,21.72
2018-10-11T03:47:02.823Z,21.72
2018-10-11T03:49:28.789Z,21.71
2018-10-11T03:51:54.842Z,21.74
2018-10-11T03:54:20.832Z,21.75
2018-10-11T03:56:46.828Z,21.73
2018-10-11T03:59:12.807Z,21.73
2018-10-11T04:01:38.786Z,21.75
2018-10-11T04:04:04.761Z,21.75
2018-10-11T04:06:30.742Z,21.75
2018-10-11T04:08:56.733Z,21.72
2018-10-11T04:11:22.697Z,21.73
2018-10-11T04:13:48.733Z,21.72
2018-10-11T04:16:14.734Z,21.69
2018-10-11T04:18:40.753Z,21.70
2018-10-11T04:21:06.746Z,21.71
2018-10-11T04:23:32.776Z,21.72
2018-10-11T04:25:58.756Z,21.72
2018-10-11T04:28:24.736Z,21.74
2018-10-11T04:30:50.713Z,21.73
2018-10-11T04:33:16.685Z,21.74
2018-10-11T04:35:42.659Z,21.74
2018-10-11T04:38:09.961Z,21.74
2018-10-11T04:40:35.962Z,21.73
2018-10-11T04:43:02.051Z,21.74
2018-10-11T04:45:27.931Z,21.73
2018-10-11T04:47:53.909Z,21.72
2018-10-11T04:50:19.949Z,21.72
2018-10-11T04:52:46.001Z,21.72
2018-10-11T04:55:11.974Z,21.73
2018-10-11T04:57:37.982Z,21.73
2018-10-11T05:00:04.044Z,21.72
2018-10-11T05:02:30.016Z,21.73
2018-10-11T05:04:55.994Z,21.72
2018-10-11T05:07:21.979Z,21.71
2018-10-11T05:09:47.956Z,21.72
2018-10-11T05:12:13.954Z,21.73
2018-10-11T05:14:39.912Z,21.73
2018-10-11T05:17:05.864Z,21.73
2018-10-11T05:19:31.849Z,21.72
2018-10-11T05:21:57.817Z,21.74
2018-10-11T05:24:23.783Z,21.71
2018-10-11T05:26:49.747Z,21.71
2018-10-11T05:29:15.707Z,21.71
2018-10-11T05:31:41.697Z,21.71
2018-10-11T05:34:07.663Z,21.73
2018-10-11T05:36:33.653Z,21.72
2018-10-11T05:38:59.614Z,21.72
2018-10-11T05:41:25.607Z,21.70
2018-10-11T05:43:51.560Z,21.68
2018-10-11T05:46:17.707Z,21.70
2018-10-11T05:48:43.706Z,21.69
2018-10-11T05:51:09.695Z,21.71
2018-10-11T05:53:35.672Z,21.70
2018-10-11T05:56:01.674Z,21.71
2018-10-11T05:58:27.672Z,21.70
2018-10-11T06:00:53.661Z,21.70
2018-10-11T06:03:19.617Z,21.72
2018-10-11T06:05:45.723Z,21.71
2018-10-11T06:08:11.718Z,21.72
2018-10-11T06:10:38.757Z,21.71
2018-10-11T06:13:04.748Z,21.71
2018-10-11T06:15:30.716Z,21.71
2018-10-11T06:17:56.741Z,21.70
2018-10-11T06:20:22.693Z,21.72
2018-10-11T06:22:48.655Z,21.72
2018-10-11T06:25:14.608Z,21.70
2018-10-11T06:27:40.589Z,21.69
2018-10-11T06:30:06.594Z,21.73
2018-10-11T06:32:32.530Z,21.74
2018-10-11T06:34:58.494Z,21.74
2018-10-11T06:37:24.480Z,21.75
2018-10-11T06:39:50.461Z,21.76
2018-10-11T06:42:16.588Z,21.73
2018-10-11T06:44:42.550Z,21.73
2018-10-11T06:47:08.531Z,21.72
2018-10-11T06:49:34.527Z,21.75
2018-10-11T06:52:00.497Z,21.74
2018-10-11T06:54:26.465Z,21.75
2018-10-11T06:56:52.414Z,21.74
2018-10-11T06:59:18.375Z,21.74
2018-10-11T07:01:44.371Z,21.74
2018-10-11T07:04:10.343Z,21.75
2018-10-11T07:06:36.348Z,21.75
2018-10-11T07:09:02.311Z,21.75
2018-10-11T07:11:28.402Z,21.76
2018-10-11T07:13:54.398Z,21.77
2018-10-11T07:16:20.355Z,21.74
2018-10-11T07:18:46.303Z,21.75
2018-10-11T07:21:12.256Z,21.74
2018-10-11T07:23:38.239Z,21.73
2018-10-11T07:26:04.327Z,21.74
2018-10-11T07:28:30.259Z,21.73
2018-10-11T07:30:56.243Z,21.72
2018-10-11T07:33:22.232Z,21.73
2018-10-11T07:35:48.222Z,21.73
2018-10-11T07:38:14.192Z,21.75
2018-10-11T07:40:40.196Z,21.76
2018-10-11T07:43:06.233Z,21.75
2018-10-11T07:45:32.189Z,21.74
2018-10-11T07:47:58.164Z,21.72
2018-10-11T07:50:24.277Z,21.73
2018-10-11T07:52:50.272Z,21.73
2018-10-11T07:55:16.201Z,21.73
2018-10-11T07:57:42.164Z,21.71
2018-10-11T08:00:08.145Z,21.73
2018-10-11T08:02:34.111Z,21.73
2018-10-11T08:05:00.091Z,21.73
2018-10-11T08:07:26.152Z,21.73
2018-10-11T08:09:52.042Z,21.73
2018-10-11T08:12:18.046Z,21.72
2018-10-11T08:14:44.046Z,21.70
2018-10-11T08:17:11.376Z,21.73
2018-10-11T08:19:37.054Z,21.75
2018-10-11T08:22:03.045Z,21.76
2018-10-11T08:24:29.135Z,21.75
2018-10-11T08:26:55.051Z,21.74
2018-10-11T08:29:20.972Z,21.76
2018-10-11T08:31:47.027Z,21.76
2018-10-11T08:34:12.949Z,21.76
2018-10-11T08:36:38.920Z,21.75
2018-10-11T08:39:04.928Z,21.74
2018-10-11T08:41:30.898Z,21.75
2018-10-11T08:43:56.956Z,21.76
2018-10-11T08:46:22.878Z,21.76
2018-10-11T08:48:48.842Z,21.73
2018-10-11T08:51:14.845Z,21.75
2018-10-11T08:53:40.853Z,21.74
2018-10-11T08:56:06.916Z,21.72
2018-10-11T08:58:32.797Z,21.72
2018-10-11T09:00:58.769Z,21.73
2018-10-11T09:03:24.814Z,21.73
2018-10-11T09:05:50.740Z,21.75
2018-10-11T09:08:16.731Z,21.77
2018-10-11T09:10:42.746Z,21.79
2018-10-11T09:13:08.703Z,21.79
2018-10-11T09:15:34.986Z,21.78
2018-10-11T09:18:01.033Z,21.78
2018-10-11T09:20:27.015Z,21.78
2018-10-11T09:22:53.026Z,21.78
2018-10-11T09:25:18.989Z,21.77
2018-10-11T09:27:44.985Z,21.75
2018-10-11T09:30:11.029Z,21.78
2018-10-11T09:32:36.995Z,21.78
2018-10-11T09:35:02.969Z,21.77
2018-10-11T09:37:28.937Z,21.75
2018-10-11T09:39:54.930Z,21.78
2018-10-11T09:42:20.894Z,21.77
2018-10-11T09:44:46.875Z,21.78
2018-10-11T09:47:12.861Z,21.78
2018-10-11T09:49:38.830Z,21.78
2018-10-11T09:52:04.813Z,21.81
2018-10-11T09:54:30.958Z,21.81
2018-10-11T09:56:56.795Z,21.81
2018-10-11T09:59:22.790Z,21.79
2018-10-11T10:01:48.760Z,21.80
2018-10-11T10:04:14.731Z,21.82
2018-10-11T10:06:40.685Z,21.81
2018-10-11T10:09:06.661Z,21.79
2018-10-11T10:11:32.627Z,21.78
2018-10-11T10:13:58.591Z,21.77
2018-10-11T10:16:24.545Z,21.77
2018-10-11T10:18:50.527Z,21.80
2018-10-11T10:21:16.552Z,21.78
2018-10-11T10:23:42.476Z,21.78
2018-10-11T10:26:08.788Z,21.80
2018-10-11T10:28:34.813Z,21.80
2018-10-11T10:31:00.770Z,21.81
2018-10-11T10:33:26.732Z,21.80
2018-10-11T10:35:52.691Z,21.83
2018-10-11T10:38:19.811Z,21.85
2018-10-11T10:40:45.811Z,21.86
2018-10-11T10:43:11.755Z,21.88
2018-10-11T10:45:37.743Z,21.86
2018-10-11T10:48:03.723Z,21.87
2018-10-11T10:50:29.711Z,21.86
2018-10-11T10:52:55.673Z,21.86
2018-10-11T10:55:21.641Z,21.87
2018-10-11T10:57:47.602Z,21.87
2018-10-11T11:00:13.759Z,21.86
2018-10-11T11:02:39.737Z,21.88
2018-10-11T11:05:05.706Z,21.86
2018-10-11T11:07:31.687Z,21.85
2018-10-11T11:09:57.752Z,21.85
2018-10-11T11:12:23.741Z,21.86
2018-10-11T11:14:49.757Z,21.86
2018-10-11T11:17:15.746Z,21.85
2018-10-11T11:19:41.748Z,21.86
2018-10-11T11:22:07.713Z,21.87
2018-10-11T11:24:33.736Z,21.89
2018-10-11T11:26:59.699Z,21.90
2018-10-11T11:29:25.721Z,21.89
2018-10-11T11:31:51.699Z,21.89
2018-10-11T11:34:17.684Z,21.90
2018-10-11T11:36:43.665Z,21.90
2018-10-11T11:39:09.652Z,21.93
2018-10-11T11:41:35.646Z,21.92
2018-10-11T11:44:01.616Z,21.92
2018-10-11T11:46:27.603Z,21.92
2018-10-11T11:48:53.593Z,21.91
2018-10-11T11:51:19.552Z,21.89
2018-10-11T11:53:45.533Z,21.88
2018-10-11T11:56:11.492Z,21.90
2018-10-11T11:58:37.465Z,21.93
2018-10-11T12:01:03.426Z,21.91
2018-10-11T12:03:29.349Z,21.90
2018-10-11T12:05:55.335Z,21.91
2018-10-11T12:08:21.333Z,21.92
2018-10-11T12:10:47.391Z,21.93
2018-10-11T12:13:13.334Z,21.94
2018-10-11T12:15:39.313Z,21.95
2018-10-11T12:18:05.361Z,21.95
2018-10-11T12:20:31.349Z,21.95
2018-10-11T12:22:57.321Z,21.97
2018-10-11T12:25:23.319Z,21.96
2018-10-11T12:27:49.304Z,21.97
2018-10-11T12:30:15.362Z,21.96
2018-10-11T12:32:41.338Z,21.96
2018-10-11T12:35:07.320Z,21.97
2018-10-11T12:37:33.321Z,21.96
2018-10-11T12:39:59.281Z,21.96
2018-10-11T12:42:25.324Z,21.96
2018-10-11T12:44:51.282Z,21.95
2018-10-11T12:47:17.368Z,21.96
2018-10-11T12:49:47.450Z,21.97
2018-10-11T12:52:09.453Z,21.95
2018-10-11T12:54:35.406Z,21.98
2018-10-11T12:57:01.532Z,21.99
2018-10-11T12:59:27.437Z,21.98
2018-10-11T13:01:53.413Z,21.98
2018-10-11T13:04:19.395Z,22.00
2018-10-11T13:06:45.354Z,22.00
2018-10-11T13:09:11.350Z,22.01
2018-10-11T13:11:37.306Z,22.01
2018-10-11T13:14:03.432Z,22.00
2018-10-11T13:16:29.422Z,22.00
2018-10-11T13:18:55.375Z,22.00
2018-10-11T13:21:21.352Z,22.01
2018-10-11T13:23:47.340Z,21.98
2018-10-11T13:26:13.329Z,21.99
2018-10-11T13:28:39.366Z,21.97
2018-10-11T13:31:05.306Z,21.99
2018-10-11T13:33:31.258Z,21.98
2018-10-11T13:35:57.241Z,21.98
2018-10-11T13:38:23.206Z,21.99
2018-10-11T13:40:49.331Z,22.02
2018-10-11T13:43:15.192Z,22.02
2018-10-11T13:45:41.310Z,22.03
2018-10-11T13:48:07.192Z,22.02
2018-10-11T13:50:33.170Z,22.04
2018-10-11T13:52:59.394Z,22.03
2018-10-11T13:55:25.299Z,22.04
2018-10-11T13:57:51.295Z,22.03
2018-10-11T14:00:17.394Z,22.03
2018-10-11T14:02:44.325Z,22.01
2018-10-11T14:05:11.399Z,22.02
2018-10-11T14:07:37.404Z,22.00
2018-10-11T14:10:03.508Z,21.99
2018-10-11T14:12:29.501Z,22.00
2018-10-11T14:14:55.483Z,22.01
2018-10-11T14:17:21.447Z,22.01
2018-10-11T14:19:47.538Z,22.01
2018-10-11T14:22:13.570Z,22.02
2018-10-11T14:24:39.559Z,22.01
2018-10-11T14:27:05.543Z,22.02
2018-10-11T14:29:32.565Z,22.02
2018-10-11T14:31:58.522Z,22.04
2018-10-11T14:34:24.534Z,22.05
2018-10-11T14:36:52.006Z,22.05
2018-10-11T14:39:17.923Z,22.03
2018-10-11T14:41:43.923Z,22.05
2018-10-11T14:44:10.118Z,22.05
2018-10-11T14:46:36.122Z,22.05
2018-10-11T14:49:02.109Z,22.04
2018-10-11T14:51:28.173Z,22.02
2018-10-11T14:53:57.914Z,22.03
2018-10-11T14:56:20.088Z,22.01
2018-10-11T14:58:46.107Z,22.01
2018-10-11T15:01:12.132Z,22.02
2018-10-11T15:03:38.118Z,22.02
2018-10-11T15:06:04.133Z,22.00
2018-10-11T15:08:30.109Z,22.00
2018-10-11T15:10:56.122Z,22.02
2018-10-11T15:13:22.108Z,22.04
2018-10-11T15:15:48.178Z,22.05
2018-10-11T15:18:14.104Z,22.05
2018-10-11T15:20:40.131Z,22.05
2018-10-11T15:23:06.107Z,22.05
2018-10-11T15:25:32.150Z,22.04
2018-10-11T15:27:58.169Z,22.04
2018-10-11T15:30:24.122Z,22.05
2018-10-11T15:32:50.093Z,22.05
2018-10-11T15:35:16.052Z,22.05
2018-10-11T15:37:42.061Z,22.05
2018-10-11T15:40:08.046Z,22.04
2018-10-11T15:42:34.084Z,22.01
2018-10-11T15:45:00.105Z,22.03
2018-10-11T15:47:26.089Z,22.01
2018-10-11T15:49:52.116Z,22.01
2018-10-11T15:52:18.174Z,22.01
2018-10-11T15:54:44.260Z,22.02
2018-10-11T15:57:10.237Z,22.03
2018-10-11T15:59:36.220Z,22.06
2018-10-11T16:02:02.252Z,22.09
2018-10-11T16:04:28.214Z,22.08
2018-10-11T16:06:54.177Z,22.08
2018-10-11T16:09:20.238Z,22.09
2018-10-11T16:11:46.227Z,22.07
2018-10-11T16:14:12.202Z,22.09
2018-10-11T16:16:38.195Z,22.08
2018-10-11T16:19:04.232Z,22.07
2018-10-11T16:21:30.223Z,22.05
2018-10-11T16:23:56.207Z,22.04
2018-10-11T16:26:22.208Z,22.06
2018-10-11T16:28:48.210Z,22.04
2018-10-11T16:31:14.182Z,22.06
2018-10-11T16:33:40.318Z,22.05
2018-10-11T16:36:06.307Z,22.05
2018-10-11T16:38:32.272Z,22.04
2018-10-11T16:40:59.212Z,22.04
2018-10-11T16:43:25.194Z,22.07
2018-10-11T16:45:51.196Z,22.08
2018-10-11T16:50:49.471Z,22.09
2018-10-11T16:53:15.455Z,22.09
2018-10-11T16:55:41.413Z,22.09
2018-10-11T16:58:07.522Z,22.11
2018-10-11T17:00:33.341Z,22.10
2018-10-11T17:02:59.326Z,22.10
2018-10-11T17:05:25.311Z,22.09
2018-10-11T17:07:51.312Z,22.08
2018-10-11T17:10:17.306Z,22.08
2018-10-11T17:12:43.332Z,22.07
2018-10-11T17:15:09.357Z,22.06
2018-10-11T17:17:35.407Z,22.08
2018-10-11T17:20:01.380Z,22.07
2018-10-11T17:22:27.389Z,22.05
2018-10-11T17:24:54.473Z,22.02
2018-10-11T17:27:20.614Z,22.07
2018-10-11T17:29:46.673Z,22.06
2018-10-11T17:32:12.539Z,22.10
2018-10-11T17:34:38.527Z,22.08
2018-10-11T17:37:04.517Z,22.09
2018-10-11T17:39:30.468Z,22.08
2018-10-11T17:41:56.527Z,22.07
2018-10-11T17:44:22.451Z,22.10
2018-10-11T17:46:48.472Z,22.09
2018-10-11T17:49:14.543Z,22.06
2018-10-11T17:51:40.562Z,22.03
2018-10-11T17:54:06.554Z,22.03
2018-10-11T17:56:32.567Z,22.04
2018-10-11T17:58:58.549Z,22.01
2018-10-11T18:01:24.525Z,22.01
2018-10-11T18:03:50.506Z,22.02
2018-10-11T18:06:17.488Z,22.00
2018-10-11T18:08:43.467Z,22.00
2018-10-11T18:11:10.462Z,22.00
2018-10-11T18:13:36.518Z,22.03
2018-10-11T18:16:04.582Z,22.05
2018-10-11T18:18:30.543Z,22.03
2018-10-11T18:20:56.511Z,22.03
2018-10-11T18:23:22.557Z,22.04
2018-10-11T18:25:48.558Z,22.03
2018-10-11T18:28:17.818Z,22.03
2018-10-11T18:30:43.782Z,22.03
2018-10-11T18:33:10.948Z,22.01
2018-10-11T18:35:37.154Z,22.01
2018-10-11T18:38:03.179Z,22.00
2018-10-11T18:40:29.133Z,22.01
2018-10-11T18:42:55.165Z,22.00
2018-10-11T18:45:21.180Z,22.00
2018-10-11T18:47:47.136Z,21.97
2018-10-11T18:50:13.120Z,21.98
2018-10-11T18:52:39.124Z,21.96
2018-10-11T18:55:05.114Z,21.99
2018-10-11T18:57:31.099Z,21.97
2018-10-11T18:59:57.086Z,22.00
2018-10-11T19:02:23.104Z,22.00
2018-10-11T19:04:49.152Z,21.99
2018-10-11T19:07:15.230Z,22.00
2018-10-11T19:09:41.245Z,22.00
2018-10-11T19:12:07.246Z,22.00
2018-10-11T19:14:33.257Z,22.01
2018-10-11T19:16:59.311Z,22.02
2018-10-11T19:19:25.278Z,21.99
2018-10-11T19:21:51.272Z,21.99
2018-10-11T19:24:17.286Z,21.97
2018-10-11T19:26:43.294Z,21.95
2018-10-11T19:29:09.278Z,21.95
2018-10-11T19:31:35.268Z,21.96
2018-10-11T19:34:01.290Z,21.97
2018-10-11T19:36:27.275Z,21.96
2018-10-11T19:38:53.321Z,21.95
2018-10-11T19:41:19.360Z,21.98
2018-10-11T19:43:45.347Z,21.98
2018-10-11T19:46:11.345Z,22.00
2018-10-11T19:48:37.449Z,22.00
2018-10-11T19:51:04.550Z,21.99
2018-10-11T19:53:30.561Z,22.01
2018-10-11T19:55:56.600Z,22.00
2018-10-11T19:58:22.560Z,22.01
2018-10-11T20:00:48.543Z,22.02
2018-10-11T20:03:14.717Z,22.01
2018-10-11T20:05:40.708Z,22.01
2018-10-11T20:08:06.737Z,22.01
2018-10-11T20:10:32.882Z,22.00
2018-10-11T20:12:58.869Z,22.00
2018-10-11T20:15:24.900Z,21.99
2018-10-11T20:17:50.916Z,22.00
2018-10-11T20:20:16.887Z,21.99
2018-10-11T20:22:42.877Z,21.98
2018-10-11T20:25:08.950Z,22.00
2018-10-11T20:27:35.953Z,21.99
2018-10-11T20:30:02.253Z,22.00
2018-10-11T20:32:30.224Z,22.02
2018-10-11T20:34:56.234Z,22.03
2018-10-11T20:37:22.226Z,22.03
2018-10-11T20:39:48.296Z,22.04
2018-10-11T20:42:14.359Z,22.04
2018-10-11T20:44:40.479Z,22.04
2018-10-11T20:47:06.464Z,22.02
2018-10-11T20:49:32.600Z,22.03
2018-10-11T20:51:58.649Z,22.01
2018-10-11T20:54:24.650Z,22.01
2018-10-11T20:56:50.638Z,22.02
2018-10-11T20:59:16.622Z,22.01
2018-10-11T21:01:42.591Z,22.01
2018-10-11T21:04:08.560Z,22.00
2018-10-11T21:06:34.538Z,22.01
2018-10-11T21:09:00.522Z,22.00
2018-10-11T21:11:26.507Z,22.01
2018-10-11T21:13:52.486Z,22.03
2018-10-11T21:16:18.451Z,22.04
2018-10-11T21:18:44.421Z,22.07
2018-10-11T21:21:10.406Z,22.07
2018-10-11T21:23:36.378Z,22.08
2018-10-11T21:26:02.344Z,22.08
2018-10-11T21:28:28.367Z,22.07
2018-10-11T21:30:54.345Z,22.07
2018-10-11T21:33:20.331Z,22.07
2018-10-11T21:35:46.339Z,22.04
2018-10-11T21:38:12.419Z,22.05
2018-10-11T21:40:38.407Z,22.05
2018-10-11T21:43:04.396Z,22.04
2018-10-11T21:45:30.433Z,22.02
2018-10-11T21:47:56.406Z,22.03
2018-10-11T21:50:22.409Z,22.05
2018-10-11T21:52:48.476Z,22.05
2018-10-11T21:55:14.438Z,22.05
2018-10-11T21:57:40.504Z,22.03
2018-10-11T22:00:06.496Z,22.06
2018-10-11T22:02:34.644Z,22.05
2018-10-11T22:05:00.612Z,22.04
2018-10-11T22:07:26.591Z,22.04
2018-10-11T22:09:53.633Z,22.04
2018-10-11T22:12:19.625Z,22.03
2018-10-11T22:14:45.691Z,22.03
2018-10-11T22:17:12.716Z,22.03
2018-10-11T22:19:38.683Z,22.04
2018-10-11T22:22:04.688Z,22.04
2018-10-11T22:24:30.670Z,22.03
2018-10-11T22:26:56.661Z,22.01
2018-10-11T22:29:22.661Z,21.99
2018-10-11T22:31:48.622Z,22.01
2018-10-11T22:34:14.608Z,22.02
2018-10-11T22:36:40.685Z,22.02
2018-10-11T22:39:06.620Z,22.00
2018-10-11T22:41:32.577Z,22.01
2018-10-11T22:43:58.623Z,22.00
2018-10-11T22:46:25.621Z,22.02
2018-10-11T22:48:51.583Z,22.04
2018-10-11T22:51:17.554Z,22.03
2018-10-11T22:53:43.558Z,22.03
2018-10-11T22:56:09.556Z,22.02
2018-10-11T22:58:35.526Z,22.02
2018-10-11T23:01:01.491Z,22.03
2018-10-11T23:03:27.462Z,22.00
2018-10-11T23:05:53.511Z,21.98
2018-10-11T23:08:19.569Z,22.01
2018-10-11T23:10:45.519Z,21.97
2018-10-11T23:13:11.504Z,21.96
2018-10-11T23:15:37.477Z,21.98
2018-10-11T23:18:03.452Z,21.97
2018-10-11T23:20:29.537Z,21.99
2018-10-11T23:22:55.722Z,21.99
2018-10-11T23:25:21.724Z,21.99
2018-10-11T23:27:47.701Z,21.99
2018-10-11T23:30:13.684Z,22.00
2018-10-11T23:32:39.649Z,22.00
2018-10-11T23:35:05.633Z,22.00
2018-10-11T23:37:31.599Z,22.00
2018-10-11T23:39:57.606Z,21.99
2018-10-11T23:42:23.566Z,21.99
2018-10-11T23:44:49.568Z,22.01
2018-10-11T23:47:15.527Z,22.00
2018-10-11T23:49:41.496Z,22.00
2018-10-11T23:52:07.472Z,21.98
2018-10-11T23:54:33.444Z,21.97
2018-10-11T23:56:59.434Z,21.96
2018-10-11T23:59:25.410Z,21.96
